createdAt,value
2022-08-24T00:27:09.214Z,45.6
2022-08-24T00:57:11.631Z,45.1
2022-08-24T01:27:14.174Z,45.6
2022-08-24T02:02:16.982Z,46.2
2022-08-24T02:32:19.182Z,44.5
2022-08-24T03:02:21.627Z,44
2022-08-24T03:32:24.141Z,44
2022-08-24T04:05:26.706Z,44.5
2022-08-24T04:37:29.149Z,44.5
2022-08-24T05:07:31.454Z,44
2022-08-24T05:37:33.854Z,45.1
2022-08-24T06:08:36.799Z,46.7
2022-08-24T06:38:38.915Z,49.4
2022-08-24T07:08:41.454Z,53.2
2022-08-24T07:38:44.093Z,56.9
2022-08-24T08:08:46.686Z,70.4
2022-08-24T08:38:49.302Z,76.3
2022-08-24T09:11:51.766Z,80.1
2022-08-24T09:51:55.068Z,80.1
2022-08-24T10:24:57.904Z,80.1
2022-08-24T10:56:00.432Z,80.1
2022-08-24T11:26:02.839Z,78.4
2022-08-24T11:56:05.324Z,77.4
2022-08-24T12:26:07.832Z,75.8
2022-08-24T12:58:10.000Z,74.7
2022-08-24T13:29:12.888Z,74.7
2022-08-24T14:01:15.567Z,72.5
2022-08-24T14:31:18.302Z,73.1
2022-08-24T15:05:21.090Z,72
2022-08-24T15:35:23.637Z,75.2
2022-08-24T16:06:26.000Z,75.8
2022-08-24T16:37:28.788Z,73.1
2022-08-24T17:08:31.358Z,72
2022-08-24T17:38:33.865Z,62.8
2022-08-24T18:08:36.368Z,58
2022-08-24T18:40:39.264Z,56.4
2022-08-24T19:10:41.866Z,54.2
2022-08-24T19:48:45.028Z,53.7
2022-08-24T19:50:44.000Z,53.2
2022-08-24T20:33:48.000Z,51.0
2022-08-24T20:34:48.000Z,51.5
2022-08-24T20:35:48.000Z,52.6
2022-08-24T20:36:48.000Z,52.1
2022-08-24T21:26:52.521Z,51.5
2022-08-24T21:27:52.618Z,50.5
2022-08-24T22:20:57.189Z,49.4
2022-08-24T22:56:00.158Z,49.4
2022-08-24T23:40:03.923Z,48.9
2022-08-24T23:43:04.000Z,49.4
2022-08-24T23:44:04.000Z,48.3
